Time;durP1;ratioP1;P1;durP2;ratioP2;P2;SDS_P1;SDS_P2;PMS_P1;PMS_P2;Temp;Humidity;BMP_temperature;BMP_pressure;BME280_temperature;BME280_humidity;BME280_pressure;Samples;Min_cycle;Max_cycle;Signal;HPM_P1;HPM_P2
2022/06/14 00:01:01;;;;;;;0.05;0.05;;;;;;;16.36;53.26;102544.28;5038888;28;20043;-76
2022/06/14 00:03:16;;;;;;;0.10;0.10;;;;;;;16.35;53.97;102545.22;5041833;28;20041;-76
2022/06/14 00:05:43;;;;;;;0.00;0.00;;;;;;;16.33;53.36;102544.34;5048144;28;20091;-76
2022/06/14 00:08:10;;;;;;;0.00;0.00;;;;;;;16.31;53.94;102547.06;5048001;28;20044;-76
2022/06/14 00:10:37;;;;;;;0.00;0.00;;;;;;;16.31;54.14;102544.38;5053242;28;20029;-76
2022/06/14 00:13:04;;;;;;;0.10;0.10;;;;;;;16.30;54.28;102549.78;5048142;28;20107;-76
2022/06/14 00:15:31;;;;;;;0.00;0.00;;;;;;;16.26;53.88;102556.97;5040498;28;20452;-77
2022/06/14 00:17:57;;;;;;;0.00;0.00;;;;;;;16.26;53.84;102553.38;5048223;28;20543;-76
2022/06/14 00:20:23;;;;;;;0.08;0.08;;;;;;;16.25;53.29;102551.63;5049982;28;20110;-76
2022/06/14 00:22:49;;;;;;;0.10;0.10;;;;;;;16.24;53.91;102552.53;5050233;28;20029;-76
2022/06/14 00:25:23;;;;;;;0.08;0.08;;;;;;;16.28;54.87;102548.91;5050521;28;20030;-76
2022/06/14 00:27:50;;;;;;;0.05;0.05;;;;;;;16.24;55.11;102547.19;5043674;28;20033;-76
2022/06/14 00:30:16;;;;;;;0.00;0.00;;;;;;;16.23;54.08;102545.44;5046361;28;20582;-76
2022/06/14 00:32:43;;;;;;;0.00;0.00;;;;;;;16.20;54.11;102551.72;5046996;28;20582;-76
2022/06/14 00:35:09;;;;;;;0.00;0.00;;;;;;;16.17;54.46;102551.75;5044769;28;20056;-76
2022/06/14 00:37:35;;;;;;;0.10;0.10;;;;;;;16.13;54.23;102545.56;5037653;28;20025;-76
2022/06/14 00:40:02;;;;;;;0.00;0.00;;;;;;;16.11;54.43;102547.41;5040536;28;20515;-76
2022/06/14 00:42:28;;;;;;;0.00;0.00;;;;;;;16.10;54.68;102537.59;5041303;28;20072;-76
2022/06/14 00:47:50;;;;;;;0.10;0.10;;;;;;;16.15;54.14;102530.38;5064651;28;20142;-75
2022/06/14 00:50:21;;;;;;;0.00;0.00;;;;;;;16.10;54.18;102534.03;5061121;28;20079;-75
2022/06/14 00:52:59;;;;;;;0.00;0.00;;;;;;;16.10;54.36;102537.59;5054139;28;20035;-75
2022/06/14 00:55:32;;;;;;;0.10;0.10;;;;;;;16.04;54.58;102524.34;5059427;28;20636;-75
2022/06/14 00:58:07;;;;;;;0.10;0.10;;;;;;;16.04;55.08;102529.69;5050552;28;20471;-75
2022/06/14 01:00:40;;;;;;;0.00;0.00;;;;;;;16.01;54.76;102522.59;5058137;28;20623;-75
2022/06/14 01:03:15;;;;;;;0.00;0.00;;;;;;;15.98;55.14;102525.28;5059621;28;20035;-75
2022/06/14 01:06:20;;;;;;;0.00;0.00;;;;;;;15.97;55.39;102520.84;5056687;28;20024;-75
2022/06/14 01:08:58;;;;;;;0.10;0.10;;;;;;;15.95;54.72;102516.44;5049477;28;20083;-75
2022/06/14 01:11:39;;;;;;;0.00;0.00;;;;;;;15.94;55.22;102512.91;5045357;28;20134;-75
2022/06/14 01:14:08;;;;;;;0.00;0.00;;;;;;;15.88;54.94;102512.13;5044551;28;20529;-75
2022/06/14 01:16:36;;;;;;;0.00;0.00;;;;;;;15.85;54.90;102513.94;5054090;28;20026;-75
2022/06/14 01:19:08;;;;;;;0.00;0.00;;;;;;;15.83;55.66;102513.06;5056591;28;20102;-75
2022/06/14 01:21:34;;;;;;;0.10;0.10;;;;;;;15.80;55.10;102520.19;5053470;28;20048;-75
2022/06/14 01:24:00;;;;;;;0.10;0.10;;;;;;;15.75;55.35;102514.94;5064068;28;20033;-75
2022/06/14 01:26:29;;;;;;;0.03;0.03;;;;;;;15.73;55.30;102522.09;5060310;28;20391;-75
2022/06/14 01:29:01;;;;;;;0.00;0.00;;;;;;;15.71;55.05;102518.56;5047631;28;20040;-74
2022/06/14 01:31:30;;;;;;;0.10;0.10;;;;;;;15.66;55.36;102515.97;5053292;28;20086;-75
2022/06/14 01:34:06;;;;;;;0.10;0.10;;;;;;;15.65;55.45;102515.97;5048254;28;20083;-74
2022/06/14 01:36:38;;;;;;;0.00;0.00;;;;;;;15.60;55.49;102507.13;5047360;28;20104;-75
2022/06/14 01:39:08;;;;;;;0.10;0.10;;;;;;;15.56;55.92;102505.44;5058682;28;20586;-75
2022/06/14 01:41:54;;;;;;;0.00;0.00;;;;;;;15.60;56.06;102502.69;5048576;28;20495;-75
2022/06/14 01:44:34;;;;;;;0.00;0.00;;;;;;;15.56;55.96;102505.44;5045408;28;20026;-75
2022/06/14 01:47:25;;;;;;;0.10;0.10;;;;;;;15.60;56.48;102507.13;5041050;28;20014;-74
2022/06/14 01:55:34;;;;;;;0.00;0.00;;;;;;;15.48;56.22;102501.06;5071745;28;20395;-75
2022/06/14 01:58:18;;;;;;;0.10;0.10;;;;;;;15.49;56.10;102505.50;5067777;28;20028;-74
2022/06/14 02:06:51;;;;;;;0.10;0.10;;;;;;;15.40;55.92;102505.63;5064760;28;20505;-74
2022/06/14 02:09:27;;;;;;;0.00;0.00;;;;;;;15.40;56.37;102500.28;5075921;28;20040;-75
2022/06/14 02:11:54;;;;;;;0.00;0.00;;;;;;;15.35;56.79;102491.44;5069139;28;20493;-75
2022/06/14 02:14:31;;;;;;;0.00;0.00;;;;;;;15.36;56.26;102493.22;5080836;28;20082;-75
2022/06/14 02:17:09;;;;;;;0.10;0.10;;;;;;;15.38;56.73;102504.78;5079639;28;20512;-75
2022/06/14 02:19:43;;;;;;;0.10;0.10;;;;;;;15.37;56.34;102493.19;5065834;28;20411;-75
2022/06/14 02:22:22;;;;;;;0.00;0.00;;;;;;;15.38;56.89;102491.44;5072874;28;20446;-75
2022/06/14 02:27:29;;;;;;;0.13;0.13;;;;;;;15.34;56.63;102497.72;5073597;28;20399;-75
2022/06/14 02:30:00;;;;;;;0.40;0.40;;;;;;;15.32;56.58;102491.50;5062958;28;20486;-75
2022/06/14 02:32:34;;;;;;;0.03;0.03;;;;;;;15.29;56.81;102496.88;5067999;28;20056;-74
2022/06/14 02:35:07;;;;;;;0.10;0.10;;;;;;;15.29;57.03;102496.88;5068858;28;20020;-75
2022/06/14 02:40:27;;;;;;;0.00;0.00;;;;;;;15.28;56.60;102485.31;5085173;27;1201917;-75
2022/06/14 02:43:17;;;;;;;0.10;0.10;;;;;;;15.32;56.53;102489.72;5103647;28;20481;-75
2022/06/14 02:46:05;;;;;;;0.05;0.05;;;;;;;15.23;56.96;102486.28;5106661;28;20032;-75
2022/06/14 02:48:45;;;;;;;0.00;0.00;;;;;;;15.26;57.16;102487.13;5107178;28;20107;-75
2022/06/14 02:51:26;;;;;;;0.00;0.00;;;;;;;15.29;57.12;102491.53;5117889;27;20489;-75
2022/06/14 02:54:01;;;;;;;0.03;0.03;;;;;;;15.26;57.31;102487.13;5110414;28;20027;-75
2022/06/14 02:56:37;;;;;;;0.00;0.00;;;;;;;15.27;57.17;102482.69;5119272;28;20035;-75
2022/06/14 02:59:15;;;;;;;0.10;0.10;;;;;;;15.26;57.33;102487.13;5110254;27;20024;-74
2022/06/14 03:01:57;;;;;;;0.05;0.05;;;;;;;15.30;57.38;102482.63;5111078;28;20054;-74
2022/06/14 03:04:33;;;;;;;0.00;0.00;;;;;;;15.27;57.13;102477.34;5111540;28;20039;-75
2022/06/14 03:07:24;;;;;;;0.00;0.00;;;;;;;15.25;57.23;102484.47;5108022;28;20111;-75
2022/06/14 03:09:51;;;;;;;0.20;0.20;;;;;;;15.18;57.48;102468.53;5114010;28;20024;-75
2022/06/14 03:15:47;;;;;;;0.03;0.03;;;;;;;15.27;57.55;102466.66;5093027;28;20360;-75
2022/06/14 03:18:30;;;;;;;0.00;0.00;;;;;;;15.23;57.27;102465.81;5082363;28;20052;-75
2022/06/14 03:21:19;;;;;;;0.00;0.00;;;;;;;15.25;57.51;102468.47;5067554;28;20028;-75
2022/06/14 03:23:58;;;;;;;0.10;0.10;;;;;;;15.18;57.44;102462.34;5072655;28;20033;-75
2022/06/14 03:26:36;;;;;;;0.00;0.00;;;;;;;15.19;57.81;102467.63;5070442;28;20029;-75
2022/06/14 03:29:15;;;;;;;0.00;0.00;;;;;;;15.20;58.11;102472.09;5067309;28;20033;-75
2022/06/14 03:31:57;;;;;;;0.00;0.00;;;;;;;15.21;57.80;102475.63;5070393;28;20028;-74
2022/06/14 03:34:29;;;;;;;0.00;0.00;;;;;;;15.17;57.52;102468.56;5071081;28;20041;-75
2022/06/14 03:36:56;;;;;;;;;;;;;;;15.27;56.81;102472.88;5065725;28;20379;-75
2022/06/14 03:39:33;;;;;;;0.08;0.08;;;;;;;15.10;57.30;102470.41;5066034;28;19913;-74
2022/06/14 03:41:59;;;;;;;0.10;0.10;;;;;;;15.08;57.64;102476.69;5066096;28;20032;-75
2022/06/14 03:44:27;;;;;;;0.00;0.00;;;;;;;15.09;57.66;102473.13;5065976;28;20402;-75
2022/06/14 03:49:58;;;;;;;0.10;0.10;;;;;;;15.08;57.23;102480.25;5095949;27;20343;-75
2022/06/14 03:52:55;;;;;;;0.10;0.10;;;;;;;15.11;57.24;102472.19;5069797;28;20060;-76
2022/06/14 03:58:29;;;;;;;0.08;0.08;;;;;;;15.10;57.95;102473.09;5107068;27;20391;-76
2022/06/14 04:01:18;;;;;;;0.10;0.10;;;;;;;15.08;58.22;102476.69;5097433;28;20036;-75
2022/06/14 04:04:10;;;;;;;0.08;0.08;;;;;;;15.10;57.91;102478.41;5100985;28;20032;-75
2022/06/14 04:12:26;;;;;;;0.00;0.00;;;;;;;15.15;57.85;102475.69;5070934;28;20705;-74
2022/06/14 04:15:32;;;;;;;0.00;0.00;;;;;;;15.19;57.42;102478.31;5057487;28;20502;-75
2022/06/14 04:18:42;;;;;;;0.08;0.08;;;;;;;15.16;57.85;102481.00;5053825;28;20044;-75
2022/06/14 04:21:07;;;;;;;0.00;0.00;;;;;;;15.18;57.73;102479.22;5042706;28;20041;-75
2022/06/14 04:23:57;;;;;;;0.10;0.10;;;;;;;15.27;56.73;102485.34;5043722;28;20091;-75
2022/06/14 04:26:33;;;;;;;0.00;0.00;;;;;;;15.25;56.86;102487.16;5034359;28;20029;-75
2022/06/14 04:29:11;;;;;;;0.10;0.10;;;;;;;15.25;57.48;102481.81;5040041;28;20029;-75
2022/06/14 04:31:44;;;;;;;0.00;0.00;;;;;;;15.30;57.54;102483.53;5035460;28;20494;-75
2022/06/14 04:37:03;;;;;;;0.43;0.35;;;;;;;15.37;57.07;102486.97;5082071;28;20945;-75
2022/06/14 04:39:45;;;;;;;0.90;0.63;;;;;;;15.42;56.97;102482.47;5080926;28;20032;-75
2022/06/14 04:42:17;;;;;;;0.00;0.00;;;;;;;15.42;56.72;102487.78;5065880;28;20032;-75
2022/06/14 04:44:49;;;;;;;0.10;0.10;;;;;;;15.46;57.23;102483.31;5078957;28;20047;-74
2022/06/14 04:47:19;;;;;;;;;;;;;;;15.62;57.09;102489.31;5075109;28;20039;-75
2022/06/14 04:49:51;;;;;;;0.05;0.05;;;;;;;15.51;57.02;102482.34;5070323;28;20027;-74
2022/06/14 04:52:30;;;;;;;0.03;0.03;;;;;;;15.61;56.84;102487.53;5071868;28;20029;-74
2022/06/14 04:55:04;;;;;;;0.10;0.10;;;;;;;15.62;56.70;102490.19;5072830;28;20051;-75
2022/06/14 04:57:44;;;;;;;0.00;0.00;;;;;;;15.66;56.40;102485.69;5074686;28;20033;-75
2022/06/14 05:03:12;;;;;;;0.10;0.10;;;;;;;15.80;55.30;102494.38;5048201;28;20418;-76
2022/06/14 05:05:47;;;;;;;0.25;0.25;;;;;;;15.83;55.37;102501.50;5046797;28;20024;-75
2022/06/14 05:08:25;;;;;;;0.00;0.00;;;;;;;15.87;55.13;102494.31;5047237;28;20025;-75
2022/06/14 05:10:58;;;;;;;0.30;0.30;;;;;;;15.91;55.11;102494.22;5047763;28;20029;-75
2022/06/14 05:13:37;;;;;;;0.00;0.00;;;;;;;15.96;55.13;102494.16;5046917;28;20037;-75
2022/06/14 05:16:10;;;;;;;0.10;0.10;;;;;;;16.00;54.83;102493.22;5039129;28;20033;-75
2022/06/14 05:21:36;;;;;;;0.00;0.00;;;;;;;16.13;54.85;102494.75;5043158;27;20132;-75
2022/06/14 05:24:05;;;;;;;0.10;0.10;;;;;;;16.14;54.33;102501.88;5040992;27;20119;-75
2022/06/14 05:26:50;;;;;;;0.00;0.00;;;;;;;16.24;53.93;102499.94;5060333;27;20119;-74
2022/06/14 05:32:41;;;;;;;0.08;0.08;;;;;;;16.42;53.10;102498.69;5068180;28;20399;-75
2022/06/14 05:38:02;;;;;;;0.08;0.08;;;;;;;16.54;52.74;102492.25;5165259;27;20935;-75
2022/06/14 05:40:48;;;;;;;;;;;;;;;16.69;52.48;102501.78;5159175;27;20055;-75
2022/06/14 05:43:24;;;;;;;;;;;;;;;16.72;52.20;102496.38;5144215;27;19918;-74
2022/06/14 05:45:55;;;;;;;;;;;;;;;16.76;51.91;102490.06;5136781;27;19954;-74
2022/06/14 05:48:27;;;;;;;;;;;;;;;16.81;51.18;102493.53;5149915;27;19911;-74
2022/06/14 05:50:54;;;;;;;;;;;;;;;16.89;51.50;102496.03;5147146;27;20411;-75
2022/06/14 05:53:26;;;;;;;;;;;;;;;16.95;51.74;102495.94;5133780;27;19957;-74
2022/06/14 05:55:56;;;;;;;;;;;;;;;17.01;51.95;102497.63;5133073;27;20568;-74
2022/06/14 05:58:32;;;;;;;;;;;;;;;17.08;51.90;102495.69;5126907;27;20303;-73
2022/06/14 06:01:01;;;;;;;;;;;;;;;17.13;50.98;102492.03;5140157;27;20341;-74
2022/06/14 06:03:44;;;;;;;;;;;;;;;17.19;50.64;102490.13;5147439;27;19919;-74
2022/06/14 06:06:28;;;;;;;;;;;;;;;17.28;51.16;102495.28;5136690;27;19911;-74
2022/06/14 06:08:59;;;;;;;;;;;;;;;17.35;51.14;102499.59;5140855;27;20372;-74
2022/06/14 06:11:32;;;;;;;;;;;;;;;17.41;51.19;102501.25;5143951;27;19980;-74
2022/06/14 06:14:05;;;;;;;;;;;;;;;17.43;50.33;102499.41;5149258;27;20368;-74
2022/06/14 06:16:39;;;;;;;;;;;;;;;17.50;50.54;102501.03;5149134;27;20381;-74
2022/06/14 06:19:12;;;;;;;;;;;;;;;17.56;50.46;102500.91;5148907;27;19922;-74
2022/06/14 06:21:49;;;;;;;;;;;;;;;17.63;50.86;102501.63;5148577;27;19911;-73
2022/06/14 06:24:20;;;;;;;;;;;;;;;17.70;50.71;102505.94;5145823;27;19911;-74
2022/06/14 06:26:49;;;;;;;;;;;;;;;17.75;50.43;102498.66;5146054;27;19911;-73
2022/06/14 06:29:35;;;;;;;;;;;;;;;17.75;50.29;102495.97;5148412;27;19911;-73
2022/06/14 06:32:02;;;;;;;;;;;;;;;17.86;50.17;102505.59;5147774;27;19943;-73
2022/06/14 06:34:28;;;;;;;;;;;;;;;17.93;49.44;102499.13;5149137;27;19936;-73
2022/06/14 06:37:00;;;;;;;;;;;;;;;17.94;49.51;102499.16;5149027;27;19979;-73
2022/06/14 06:42:39;;;;;;;;;;;;;;;18.06;48.46;102506.00;5086783;27;19917;-74
2022/06/14 06:45:14;;;;;;;;;;;;;;;18.17;49.08;102500.38;5062636;28;19917;-74
2022/06/14 06:47:46;;;;;;;;;;;;;;;18.21;47.85;102495.81;5068297;28;19912;-74
2022/06/14 06:50:15;;;;;;;;;;;;;;;18.24;48.26;102504.66;5068334;28;19912;-73
2022/06/14 06:55:26;;;;;;;;;;;;;;;18.35;48.00;102507.03;5100926;27;1872250;-75
2022/06/14 06:57:55;;;;;;;;;;;;;;;18.42;47.26;102503.28;5148383;27;19915;-75
2022/06/14 07:00:22;;;;;;;;;;;;;;;18.49;45.97;102503.13;5134381;27;19919;-74
2022/06/14 07:02:51;;;;;;;;;;;;;;;18.56;46.60;102500.22;5128382;28;19919;-74
2022/06/14 07:05:17;;;;;;;;;;;;;;;18.58;47.26;102497.53;5129376;28;19912;-74
2022/06/14 07:07:48;;;;;;;;;;;;;;;18.66;46.51;102500.84;5129193;28;19935;-74
2022/06/14 07:13:15;;;;;;;;;;;;;;;18.79;46.31;102516.63;5149158;27;20342;-74
2022/06/14 07:15:45;;;;;;;;;;;;;;;18.87;45.96;102503.88;5150311;27;19943;-74
2022/06/14 07:18:31;;;;;;;;;;;;;;;18.92;45.98;102510.91;5150189;27;19918;-74
2022/06/14 07:21:02;;;;;;;;;;;;;;;18.97;45.32;102512.59;5128599;27;19978;-74
2022/06/14 07:26:24;;;;;;;;;;;;;;;19.14;45.09;102506.69;5086241;27;19970;-76
2022/06/14 07:29:11;;;;;;;;;;;;;;;19.18;43.99;102508.41;5088461;28;19960;-74
2022/06/14 07:31:43;;;;;;;;;;;;;;;19.23;44.71;102499.25;5087425;28;19978;-74
2022/06/14 07:34:10;;;;;;;;;;;;;;;19.30;44.97;102502.66;5088718;28;19912;-75
2022/06/14 07:36:56;;;;;;;;;;;;;;;19.38;45.37;102495.22;5084151;28;19912;-74
2022/06/14 07:42:12;;;;;;;;;;;;;;;19.57;45.42;102500.03;5067650;28;20706;-76
2022/06/14 07:44:45;;;;;;;;;;;;;;;19.61;44.25;102496.28;5068682;28;19923;-74
2022/06/14 07:47:31;;;;;;;;;;;;;;;19.69;44.41;102499.63;5068449;28;19913;-74
2022/06/14 07:55:18;;;;;;;;;;;;;;;19.87;44.69;102500.00;5067502;28;19917;-74
2022/06/14 07:57:46;;;;;;;;;;;;;;;19.96;44.25;102494.31;5068178;28;19921;-74
2022/06/14 08:02:53;;;;;;;;;;;;;;;20.14;44.00;102498.19;5170064;27;19917;-75
2022/06/14 08:05:22;;;;;;;;;;;;;;;20.27;43.83;102498.66;5171120;27;19919;-75
2022/06/14 08:07:50;;;;;;;;;;;;;;;20.35;43.00;102499.25;5171085;27;19918;-76
2022/06/14 08:10:35;;;;;;;;;;;;;;;20.50;43.40;102491.59;5153062;27;19922;-75
2022/06/14 08:13:05;;;;;;;;;;;;;;;20.60;42.58;102490.31;5142468;27;19957;-76
2022/06/14 08:15:34;;;;;;;;;;;;;;;20.69;42.21;102498.06;5149725;27;19923;-75
2022/06/14 08:18:20;;;;;;;;;;;;;;;20.81;43.11;102490.50;5149893;27;19912;-75
2022/06/14 08:20:51;;;;;;;;;;;;;;;20.92;42.80;102491.00;5148845;27;19922;-75
2022/06/14 08:23:37;;;;;;;;;;;;;;;21.01;42.60;102487.94;5147433;27;19920;-76
2022/06/14 08:26:07;;;;;;;;;;;;;;;21.13;42.36;102491.09;5143240;27;19915;-76
2022/06/14 08:28:37;;;;;;;;;;;;;;;21.19;40.58;102490.88;5149512;27;20365;-75
2022/06/14 08:31:08;;;;;;;;;;;;;;;21.31;41.06;102485.00;5149071;27;19960;-75
2022/06/14 08:33:38;;;;;;;;;;;;;;;21.36;43.27;102482.13;5149605;27;19971;-76
2022/06/14 08:36:07;;;;;;;;;;;;;;;21.48;41.85;102483.44;5147981;27;19917;-76
2022/06/14 08:38:40;;;;;;;;;;;;;;;21.58;39.57;102476.78;5148047;27;19923;-75
2022/06/14 08:43:50;;;;;;;;;;;;;;;21.82;42.51;102468.63;5088707;28;19919;-74
2022/06/14 08:52:00;;;;;;;;;;;;;;;22.25;40.19;102469.47;5085212;27;20424;-74
2022/06/14 08:54:46;;;;;;;;;;;;;;;22.38;39.99;102475.25;5084894;28;19920;-74
2022/06/14 08:57:22;;;;;;;;;;;;;;;22.46;39.98;102469.50;5088142;28;19939;-74
2022/06/14 09:02:33;;;;;;;;;;;;;;;22.66;40.55;102470.44;5087989;27;19916;-74
2022/06/14 09:05:19;;;;;;;;;;;;;;;22.81;40.03;102461.63;5088706;28;19924;-74
2022/06/14 09:08:01;;;;;;;;;;;;;;;22.93;38.88;102469.16;5086764;28;20309;-74
2022/06/14 09:10:36;;;;;;;;;;;;;;;23.08;39.93;102459.47;5084128;28;19953;-76
2022/06/14 09:16:00;;;;;;;;;;;;;;;23.36;38.72;102466.28;5087011;27;20448;-75
2022/06/14 09:18:46;;;;;;;;;;;;;;;23.45;37.96;102456.81;5086882;28;20306;-75
2022/06/14 09:21:16;;;;;;;;;;;;;;;23.51;37.84;102451.13;5060711;28;19920;-75
2022/06/14 09:23:45;;;;;;;;;;;;;;;23.66;38.39;102452.19;5067117;28;19916;-75
2022/06/14 09:26:29;;;;;;;;;;;;;;;23.79;37.86;102452.47;5067938;28;19919;-75
2022/06/14 09:29:13;;;;;;;;;;;;;;;23.89;37.83;102447.47;5068319;28;19912;-75
2022/06/14 09:31:47;;;;;;;;;;;;;;;24.02;36.99;102442.31;5063567;28;20294;-75
2022/06/14 09:34:33;;;;;;;;;;;;;;;24.16;37.08;102439.78;5064449;28;19924;-75
2022/06/14 09:37:19;;;;;;;;;;;;;;;24.31;34.85;102440.81;5068430;28;19919;-75
2022/06/14 09:40:05;;;;;;;;;;;;;;;24.43;36.60;102446.53;5068201;28;20036;-75
2022/06/14 09:48:12;;;;;;;;;;;;;;;25.04;35.62;102442.31;5118696;27;19937;-76
2022/06/14 09:50:50;;;;;;;;;;;;;;;25.31;34.61;102437.16;5108426;28;19916;-76
2022/06/14 09:56:21;;;;;;;;;;;;;;;25.79;32.89;102439.81;5048569;28;19921;-74
2022/06/14 09:59:07;;;;;;;;;;;;;;;25.91;33.09;102431.94;5048259;28;20004;-74
2022/06/14 10:04:33;;;;;;;;;;;;;;;25.86;34.41;102428.59;5072057;27;20019;-74
2022/06/14 10:10:04;;;;;;;;;;;;;;;25.66;34.33;102426.09;5088502;27;19913;-74
2022/06/14 10:15:14;;;;;;;;;;;;;;;25.71;33.70;102412.28;5085642;27;19916;-74
2022/06/14 10:23:18;;;;;;;;;;;;;;;25.72;31.73;102410.41;5082462;27;19970;-74
2022/06/14 10:28:49;;;;;;;;;;;;;;;25.54;31.27;102407.81;5087956;28;19912;-75
2022/06/14 10:33:59;;;;;;;;;;;;;;;25.56;31.48;102399.59;5087474;27;20345;-74
2022/06/14 10:36:45;;;;;;;;;;;;;;;25.48;30.48;102392.81;5080310;28;19917;-75
2022/06/14 10:41:58;;;;;;;;;;;;;;;25.37;32.75;102399.81;5128842;27;19973;-74
2022/06/14 10:44:30;;;;;;;;;;;;;;;25.35;33.12;102392.59;5129596;27;19915;-74
2022/06/14 10:47:16;;;;;;;;;;;;;;;25.36;32.89;102396.19;5128449;27;20002;-74
2022/06/14 10:52:40;;;;;;;;;;;;;;;25.54;32.66;102391.53;5087863;27;19989;-74
2022/06/14 10:55:26;;;;;;;;;;;;;;;25.73;33.14;102379.59;5088436;28;20360;-74
2022/06/14 11:00:41;;;;;;;;;;;;;;;25.94;31.78;102371.97;5068471;28;19921;-74
2022/06/14 11:03:15;;;;;;;;;;;;;;;25.99;32.73;102375.28;5063219;28;19932;-74
2022/06/14 11:06:01;;;;;;;;;;;;;;;26.00;32.49;102372.47;5066172;28;19924;-74
2022/06/14 11:11:22;;;;;;;;;;;;;;;25.79;33.50;102363.78;5087991;27;19913;-74
2022/06/14 11:14:07;;;;;;;;;;;;;;;25.91;34.36;102372.19;5088703;28;19916;-74
2022/06/14 11:16:53;;;;;;;;;;;;;;;25.92;33.58;102369.38;5087608;28;20378;-75
2022/06/14 11:19:31;;;;;;;;;;;;;;;26.03;33.81;102363.25;5078249;28;20382;-75
2022/06/14 11:22:17;;;;;;;;;;;;;;;26.24;32.11;102363.78;5080519;28;19916;-74
2022/06/14 11:24:50;;;;;;;;;;;;;;;26.45;32.90;102360.72;5087956;28;19919;-75
2022/06/14 11:27:21;;;;;;;;;;;;;;;26.64;31.82;102360.38;5088358;28;19929;-75
2022/06/14 11:30:07;;;;;;;;;;;;;;;26.72;32.21;102363.50;5088293;28;19916;-74
2022/06/14 11:32:39;;;;;;;;;;;;;;;26.91;32.71;102351.47;5087304;28;19912;-74
2022/06/14 11:37:53;;;;;;;;;;;;;;;27.18;31.62;102356.03;5068243;28;19913;-75
2022/06/14 11:40:23;;;;;;;;;;;;;;;27.06;31.80;102345.00;5068332;28;19916;-75
2022/06/14 11:45:36;;;;;;;;;;;;;;;26.55;31.70;102350.13;5128373;27;19931;-74
2022/06/14 11:48:13;;;;;;;;;;;;;;;26.39;32.42;102353.81;5127529;27;19922;-75
2022/06/14 11:53:41;;;;;;;;;;;;;;;26.14;32.26;102352.66;5087489;27;19916;-74
2022/06/14 11:56:12;;;;;;;;;;;;;;;26.21;33.07;102357.72;5087481;28;19917;-74
2022/06/14 12:01:24;;;;;;;;;;;;;;;26.59;32.48;102338.06;5045874;28;20445;-75
2022/06/14 12:06:55;;;;;;;;;;;;;;;26.85;32.08;102336.41;5068313;28;20452;-74
2022/06/14 12:09:32;;;;;;;;;;;;;;;27.00;32.42;102326.34;5068177;28;19920;-74
2022/06/14 12:12:14;;;;;;;;;;;;;;;27.16;31.18;102322.63;5067806;28;19913;-74
2022/06/14 12:17:25;;;;;;;;;;;;;;;27.29;31.00;102323.50;5108173;27;19932;-74
2022/06/14 12:19:56;;;;;;;;;;;;;;;27.38;30.36;102322.03;5109009;28;19970;-75
2022/06/14 12:22:28;;;;;;;;;;;;;;;27.38;31.78;102328.34;5108196;28;19965;-75
2022/06/14 12:27:45;;;;;;;;;;;;;;;27.67;30.59;102314.59;5108509;28;19912;-74
2022/06/14 12:30:13;;;;;;;;;;;;;;;27.81;30.71;102310.06;5107010;28;19912;-75
2022/06/14 12:32:43;;;;;;;;;;;;;;;27.90;30.68;102312.09;5106700;28;19916;-75
2022/06/14 12:38:01;;;;;;;;;;;;;;;28.15;30.79;102308.56;5088333;27;19934;-74
2022/06/14 12:43:13;;;;;;;;;;;;;;;27.89;29.59;102304.94;5129149;27;20339;-74
2022/06/14 12:45:43;;;;;;;;;;;;;;;27.74;30.86;102304.19;5129446;27;20369;-75
2022/06/14 12:50:49;;;;;;;;;;;;;;;27.34;30.71;102299.59;5128420;27;20335;-74
2022/06/14 12:53:20;;;;;;;;;;;;;;;27.07;32.85;102297.78;5129623;27;19951;-75
2022/06/14 12:55:49;;;;;;;;;;;;;;;26.91;31.47;102291.63;5129499;28;19954;-75
2022/06/14 12:58:35;;;;;;;;;;;;;;;26.71;32.67;102284.75;5140557;27;20320;-74
2022/06/14 13:01:17;;;;;;;;;;;;;;;26.47;31.55;102294.41;5124324;27;19919;-75
2022/06/14 13:04:03;;;;;;;;;;;;;;;26.34;31.16;102298.88;5128866;27;19916;-74
2022/06/14 13:09:27;;;;;;;;;;;;;;;26.19;32.07;102294.44;5068000;28;19920;-74
2022/06/14 13:12:00;;;;;;;;;;;;;;;26.06;33.84;102291.66;5067442;28;19916;-75
2022/06/14 13:14:29;;;;;;;;;;;;;;;26.06;33.42;102283.50;5062503;28;19917;-76
2022/06/14 13:17:15;;;;;;;;;;;;;;;26.04;33.37;102280.81;5068049;28;20341;-78
2022/06/14 13:19:52;;;;;;;;;;;;;;;26.01;33.81;102289.19;5068159;28;20506;-76
2022/06/14 13:22:38;;;;;;;;;;;;;;;25.94;33.89;102279.66;5067369;28;19919;-76
2022/06/14 13:25:24;;;;;;;;;;;;;;;25.81;33.82;102283.13;5068093;28;20023;-76
2022/06/14 13:28:10;;;;;;;;;;;;;;;25.89;33.76;102282.66;5062814;28;19921;-76
2022/06/14 13:30:54;;;;;;;;;;;;;;;26.24;32.97;102276.00;5060141;28;19970;-76
2022/06/14 13:36:17;;;;;;;;;;;;;;;27.00;32.46;102265.66;5090084;27;19919;-77
2022/06/14 13:38:55;;;;;;;;;;;;;;;27.23;32.04;102264.97;5086237;28;19928;-77
2022/06/14 13:46:47;;;;;;;;;;;;;;;27.93;31.00;102263.75;5070375;28;19963;-77
2022/06/14 13:49:33;;;;;;;;;;;;;;;28.15;31.03;102261.34;5072239;28;20011;-77
2022/06/14 13:52:03;;;;;;;;;;;;;;;28.13;31.40;102260.59;5068477;28;20049;-77
2022/06/14 13:54:49;;;;;;;;;;;;;;;27.94;30.33;102253.72;5068730;28;19948;-77
2022/06/14 13:57:24;;;;;;;;;;;;;;;27.82;31.87;102258.19;5068746;28;19926;-77
2022/06/14 13:59:51;;;;;;;;;;;;;;;27.67;31.90;102260.16;5065327;28;19923;-77
2022/06/14 14:02:37;;;;;;;;;;;;;;;27.57;31.45;102245.44;5063134;28;19916;-77
2022/06/14 14:08:05;;;;;;;;;;;;;;;27.42;32.31;102241.94;5086349;27;20332;-76
2022/06/14 14:10:39;;;;;;;;;;;;;;;27.28;32.24;102238.31;5088190;28;20003;-76
2022/06/14 14:13:25;;;;;;;;;;;;;;;27.23;32.61;102237.75;5088047;28;20538;-76
2022/06/14 14:16:11;;;;;;;;;;;;;;;27.39;32.40;102226.69;5088175;28;19995;-76
2022/06/14 14:18:56;;;;;;;;;;;;;;;27.68;31.74;102226.50;5087948;28;19912;-76
2022/06/14 14:21:25;;;;;;;;;;;;;;;27.96;31.46;102227.22;5079740;28;19927;-76
2022/06/14 14:24:11;;;;;;;;;;;;;;;28.13;31.47;102219.75;5080171;28;19920;-76
2022/06/14 14:26:43;;;;;;;;;;;;;;;28.38;30.36;102208.75;5088075;28;19916;-76
2022/06/14 14:29:28;;;;;;;;;;;;;;;28.56;29.10;102201.06;5088028;28;19917;-76
2022/06/14 14:34:41;;;;;;;;;;;;;;;28.96;30.14;102199.00;5069563;28;19983;-77
2022/06/14 14:37:11;;;;;;;;;;;;;;;29.15;29.81;102198.47;5069794;28;19917;-78
2022/06/14 14:39:45;;;;;;;;;;;;;;;29.33;28.42;102186.13;5069934;28;19920;-77
2022/06/14 14:42:33;;;;;;;;;;;;;;;29.46;28.82;102185.16;5069467;28;19958;-77
2022/06/14 14:45:04;;;;;;;;;;;;;;;29.61;28.82;102186.66;5061563;28;19920;-77
2022/06/14 14:47:34;;;;;;;;;;;;;;;29.75;27.94;102181.97;5068295;28;19920;-76
2022/06/14 14:50:06;;;;;;;;;;;;;;;29.96;27.49;102174.75;5069706;28;19920;-77
2022/06/14 14:52:52;;;;;;;;;;;;;;;30.17;28.06;102171.25;5068380;28;19976;-77
2022/06/14 14:55:24;;;;;;;;;;;;;;;30.39;26.68;102164.00;5069243;28;19917;-77
2022/06/14 14:57:56;;;;;;;;;;;;;;;30.47;27.64;102164.22;5069525;28;19913;-77
2022/06/14 15:05:54;;;;;;;;;;;;;;;30.20;27.71;102162.78;5046719;28;19924;-78
2022/06/14 15:13:45;;;;;;;;;;;;;;;29.95;28.43;102167.56;5085859;27;21152;-77
2022/06/14 15:16:14;;;;;;;;;;;;;;;29.58;28.62;102156.00;5057366;28;20416;-77
2022/06/14 15:21:28;;;;;;;;;;;;;;;29.03;30.36;102162.09;5068588;28;19999;-75
2022/06/14 15:23:58;;;;;;;;;;;;;;;28.81;30.57;102154.69;5069411;28;19952;-77
2022/06/14 15:26:26;;;;;;;;;;;;;;;28.66;30.99;102152.16;5069090;28;19921;-77
2022/06/14 15:28:55;;;;;;;;;;;;;;;28.50;31.32;102154.28;5057034;28;20381;-77
2022/06/14 15:34:02;;;;;;;;;;;;;;;28.23;31.75;102139.91;5090172;27;19912;-77
2022/06/14 15:36:30;;;;;;;;;;;;;;;28.14;31.38;102140.59;5090063;28;19978;-77
2022/06/14 15:39:06;;;;;;;;;;;;;;;28.13;31.49;102140.72;5090035;28;19938;-77
2022/06/14 15:41:33;;;;;;;;;;;;;;;28.02;32.09;102145.06;5084680;28;19975;-77
2022/06/14 15:46:36;;;;;;;;;;;;;;;28.23;30.05;102139.03;5110279;27;1868345;-78
2022/06/14 15:49:06;;;;;;;;;;;;;;;28.60;30.89;102136.25;5171897;27;19926;-77
2022/06/14 15:51:32;;;;;;;;;;;;;;;28.96;29.50;102136.25;5171843;27;19910;-77
2022/06/14 15:53:59;;;;;;;;;;;;;;;29.27;28.69;102133.84;5171768;27;19979;-77